Airfield :







YOU CAN JOIN US ON...

 
LOGIN :

Register | Disclaimer

   EN    FR    IT 

 









Legend :    VFR   Marginal VFR   IFR   Intensive IFR   Very Intensive IFR
Visi :
Ceiling :
>= 8 km
>= 3000ft
5 to 8 km
1000 to 3000 ft
1500m to 5 km
500 to 1000 ft
800 to 1500m
200 to 500 ft
< 800m
< 200 ft
Symbols :   Thunderstorms  Fog  Heavy snow  Heavy precipitations  Wind > 20 kt






- Airport Elevation : 172 ft
- IATA code : YYY


CYYY - Mont Joli

CURRENT METAR :
  • 010051Z 04007KT 10SM BKN010 OVC040 M00/M01 A3019 RMK SF5SC3 SLP227

EXPIRED METARs :
  • 010000Z 06005KT 4SM -SN OVC004 M00/M01 A3019 RMK SF8 SLP229
  • 312331Z 04007KT 2 1/2SM -SN OVC004 M01/M01 A3019 RMK SF8 SLP229
  • 312300Z 05010KT 1 1/4SM -SN BLSN VV004 M01/M01 A3020 RMK SN8 SLP230
  • 312204Z 04013KT 1SM R06/P6000FT/N -SN BLSN VV003 M01/M01 A3020 RMK BLSN8 SLP231

TAF AMD TAF CYYY
Valid from the 31 at 23:00 until the 01 at 08:00 UTC


312310Z 3123/0108 05012G22KT 1SM -SN BLSN OVC004
TEMPO 3123/0103 6SM -SN FEW004 OVC010
PROB30 3123/0103 1SM -FZDZ BR
FM010300 05010G20KT 2SM -SN OVC010
TEMPO 0103/0108 1SM -SN OVC007 RMK NXT FCST BY 010200Z



MET'MAP, your aeronautical weather chart ! - Copyright ORBIFLY December 2007 - Disclaimer

ORBIFLY MET'MAP TEAM :

Programming & Development : Alexandra Zaïnal
Concept & original design : Baudouin d'Aumeries
Assistance for programming : Marc-Olivier Méhu
Technical & hardware support : Manuel Goepfert

Contact : metmap@orbifly.com




SOURCES & CREDITS :

   NOAA